Frio Shinano — 3FNR3 — position and weather

sailwx.info

Track history (hours):
 
Tides and Currents Weather Stations Pressure Air Temp Water Temp Dewpoint Dewpoint Depression Visibility Wind Speed Wind Dir Waves Ship Positions

Frio Shinano

Last reported at 2018-Jan-06 12:18 UTC. Time now 2018-Feb-23 22:18 UTC.
Position N 06°26' E 003°23'.
Warning: this ship's position is 48 days out of date.

Length 134 m; draft 8.1 m.

Type: Cargo ship. MMSI: 352349000.

Date/timePositionNaut miles runAvg speedWind from/ knotsBaromVisibWave heightAir tempDewpointWater temp
2018-Jan-06 12:18N 06°26' E 003°23'0 0.0
2018-Jan-06 12:00N 06°26' E 003°23'0 0.0
2018-Jan-06 11:30N 06°26' E 003°23'0 0.0
2018-Jan-06 09:18N 06°26' E 003°23'0 0.0
2018-Jan-06 09:00N 06°26' E 003°23'0 0.0
2018-Jan-06 08:30N 06°26' E 003°23'0 0.0
2018-Jan-06 07:59N 06°26' E 003°23'0 0.0
2018-Jan-06 07:30N 06°26' E 003°23'0 0.0
2018-Jan-06 07:00N 06°26' E 003°23'0 0.0
2018-Jan-06 05:07N 06°26' E 003°23'0 0.0
2018-Jan-06 03:03N 06°26' E 003°23'0 0.0
2018-Jan-05 04:11N 06°26' E 003°23'0 0.0
2018-Jan-05 02:42N 06°26' E 003°23'0 0.0
2018-Jan-05 02:30N 06°26' E 003°23'0 0.0
2018-Jan-05 02:00N 06°26' E 003°23'0 0.0
2018-Jan-05 01:30N 06°26' E 003°23'0 0.0
2018-Jan-05 01:00N 06°26' E 003°23'0 0.0
2018-Jan-05 00:29N 06°26' E 003°23'0 0.0
2018-Jan-04 21:49N 06°26' E 003°23'0 0.0
2018-Jan-04 20:03N 06°26' E 003°23'0 0.0
2018-Jan-04 20:00N 06°26' E 003°23'0 0.0
2018-Jan-04 19:28N 06°26' E 003°23'0 0.0
2018-Jan-04 19:00N 06°26' E 003°23'0 0.0
2018-Jan-04 18:28N 06°26' E 003°23'0 0.0
2018-Jan-04 00:00N 06°26' E 003°23'0 0.0
2018-Jan-03 23:30N 06°26' E 003°23'0 0.0
2018-Jan-03 23:00N 06°26' E 003°23'0 0.0
2018-Jan-03 22:30N 06°26' E 003°23'0 0.0
2018-Jan-03 22:00N 06°26' E 003°23'0 0.0
2018-Jan-03 21:30N 06°26' E 003°23'0 0.0
2018-Jan-03 21:00N 06°26' E 003°23'0 0.0
2018-Jan-03 20:30N 06°26' E 003°23'0 0.0
2018-Jan-03 19:29N 06°26' E 003°23'0 0.0
2018-Jan-03 05:56N 06°26' E 003°23'0 0.0
2018-Jan-03 05:30N 06°26' E 003°23'0 0.0
2018-Jan-03 03:54N 06°26' E 003°23'0 0.0
2018-Jan-03 03:25N 06°26' E 003°23'0 0.0
2018-Jan-03 03:00N 06°26' E 003°23'0 0.0
2018-Jan-03 02:30N 06°26' E 003°23'0 0.0
2018-Jan-03 02:00N 06°26' E 003°23'0 0.0
2018-Jan-03 01:16N 06°26' E 003°23'0 0.0
2018-Jan-03 01:00N 06°26' E 003°23'0 0.0
2018-Jan-02 03:29N 06°26' E 003°23'0 0.0
2018-Jan-02 03:00N 06°26' E 003°23'0 0.0
2018-Jan-02 02:30N 06°26' E 003°23'0 0.0
2018-Jan-02 01:50N 06°26' E 003°23'0 0.0
2018-Jan-02 01:30N 06°26' E 003°23'0 0.0
2018-Jan-01 19:19N 06°26' E 003°23'0 0.0
2018-Jan-01 19:00N 06°26' E 003°23'0 0.0
2017-Dec-31 19:09N 06°26' E 003°23'0 0.0
2017-Dec-31 18:59N 06°26' E 003°23'0 0.0
2017-Dec-31 18:29N 06°26' E 003°23'0 0.0
2017-Dec-31 18:00N 06°26' E 003°23'0 0.0
2017-Dec-30 18:41N 06°26' E 003°23'0 0.0
2017-Dec-30 18:30N 06°26' E 003°23'0 0.0
2017-Dec-30 17:58N 06°26' E 003°23'0 0.0
2017-Dec-30 17:28N 06°26' E 003°23'42 2.7
2017-Dec-30 01:48N 05°50' E 003°03'612.8
2017-Dec-30 01:19N 05°45' E 002°59'813.0
2017-Dec-30 00:41N 05°38' E 002°54'213.1
2017-Dec-30 00:30N 05°36' E 002°53'116 3.1
2017-Dec-28 11:10N 04°08' E 001°37'0 0.4
2017-Dec-28 10:54N 04°08' E 001°37'0 0.4
2017-Dec-28 10:15N 04°08' E 001°37'0 0.3
2017-Dec-28 10:00N 04°08' E 001°37'0 0.3
2017-Dec-28 09:30N 04°08' E 001°37'1 0.3
2017-Dec-28 05:31N 04°07' E 001°36'0 0.3
2017-Dec-28 05:30N 04°06' E 001°36'0 0.3
2017-Dec-28 05:00N 04°06' E 001°36'0 0.3
2017-Dec-28 04:26N 04°06' E 001°36'0 0.4
2017-Dec-28 03:39N 04°06' E 001°36'0 0.3
2017-Dec-28 03:30N 04°06' E 001°36'0 0.4
2017-Dec-28 03:00N 04°06' E 001°36'0 0.3
2017-Dec-28 02:28N 04°06' E 001°36'0 0.3
2017-Dec-28 01:40N 04°05' E 001°36'0 0.3
2017-Dec-28 01:30N 04°05' E 001°35'0 0.3
2017-Dec-27 23:53N 04°05' E 001°35'1 0.2
2017-Dec-27 21:08N 04°05' E 001°35'0 0.4
2017-Dec-27 21:00N 04°05' E 001°34'0 0.3
2017-Dec-27 20:31N 04°05' E 001°34'0 0.1
2017-Dec-27 19:59N 04°05' E 001°34'0 0.9
2017-Dec-27 19:30N 04°05' E 001°34'5 9.3
2017-Dec-27 19:00N 04°04' E 001°30'  
Track history (hours):
 
Tides and Currents Weather Stations Pressure Air Temp Water Temp Dewpoint Dewpoint Depression Visibility Wind Speed Wind Dir Waves Ship Positions

Frio Shinano

Last reported at 2018-Jan-06 12:18 UTC. Time now 2018-Feb-23 22:18 UTC.
Position N 06°26' E 003°23'.
Warning: this ship's position is 48 days out of date.

Length 134 m; draft 8.1 m.

Type: Cargo ship. MMSI: 352349000.

Date/timePositionNaut miles runAvg speedWind from/ knotsBaromVisibWave heightAir tempDewpointWater temp
2018-Jan-06 12:18N 06°26' E 003°23'0 0.0
2018-Jan-06 12:00N 06°26' E 003°23'0 0.0
2018-Jan-06 11:30N 06°26' E 003°23'0 0.0
2018-Jan-06 09:18N 06°26' E 003°23'0 0.0
2018-Jan-06 09:00N 06°26' E 003°23'0 0.0
2018-Jan-06 08:30N 06°26' E 003°23'0 0.0
2018-Jan-06 07:59N 06°26' E 003°23'0 0.0
2018-Jan-06 07:30N 06°26' E 003°23'0 0.0
2018-Jan-06 07:00N 06°26' E 003°23'0 0.0
2018-Jan-06 05:07N 06°26' E 003°23'0 0.0
2018-Jan-06 03:03N 06°26' E 003°23'0 0.0
2018-Jan-05 04:11N 06°26' E 003°23'0 0.0
2018-Jan-05 02:42N 06°26' E 003°23'0 0.0
2018-Jan-05 02:30N 06°26' E 003°23'0 0.0
2018-Jan-05 02:00N 06°26' E 003°23'0 0.0
2018-Jan-05 01:30N 06°26' E 003°23'0 0.0
2018-Jan-05 01:00N 06°26' E 003°23'0 0.0
2018-Jan-05 00:29N 06°26' E 003°23'0 0.0
2018-Jan-04 21:49N 06°26' E 003°23'0 0.0
2018-Jan-04 20:03N 06°26' E 003°23'0 0.0
2018-Jan-04 20:00N 06°26' E 003°23'0 0.0
2018-Jan-04 19:28N 06°26' E 003°23'0 0.0
2018-Jan-04 19:00N 06°26' E 003°23'0 0.0
2018-Jan-04 18:28N 06°26' E 003°23'0 0.0
2018-Jan-04 00:00N 06°26' E 003°23'0 0.0
2018-Jan-03 23:30N 06°26' E 003°23'0 0.0
2018-Jan-03 23:00N 06°26' E 003°23'0 0.0
2018-Jan-03 22:30N 06°26' E 003°23'0 0.0
2018-Jan-03 22:00N 06°26' E 003°23'0 0.0
2018-Jan-03 21:30N 06°26' E 003°23'0 0.0
2018-Jan-03 21:00N 06°26' E 003°23'0 0.0
2018-Jan-03 20:30N 06°26' E 003°23'0 0.0
2018-Jan-03 19:29N 06°26' E 003°23'0 0.0
2018-Jan-03 05:56N 06°26' E 003°23'0 0.0
2018-Jan-03 05:30N 06°26' E 003°23'0 0.0
2018-Jan-03 03:54N 06°26' E 003°23'0 0.0
2018-Jan-03 03:25N 06°26' E 003°23'0 0.0
2018-Jan-03 03:00N 06°26' E 003°23'0 0.0
2018-Jan-03 02:30N 06°26' E 003°23'0 0.0
2018-Jan-03 02:00N 06°26' E 003°23'0 0.0
2018-Jan-03 01:16N 06°26' E 003°23'0 0.0
2018-Jan-03 01:00N 06°26' E 003°23'0 0.0
2018-Jan-02 03:29N 06°26' E 003°23'0 0.0
2018-Jan-02 03:00N 06°26' E 003°23'0 0.0
2018-Jan-02 02:30N 06°26' E 003°23'0 0.0
2018-Jan-02 01:50N 06°26' E 003°23'0 0.0
2018-Jan-02 01:30N 06°26' E 003°23'0 0.0
2018-Jan-01 19:19N 06°26' E 003°23'0 0.0
2018-Jan-01 19:00N 06°26' E 003°23'0 0.0
2017-Dec-31 19:09N 06°26' E 003°23'0 0.0
2017-Dec-31 18:59N 06°26' E 003°23'0 0.0
2017-Dec-31 18:29N 06°26' E 003°23'0 0.0
2017-Dec-31 18:00N 06°26' E 003°23'0 0.0
2017-Dec-30 18:41N 06°26' E 003°23'0 0.0
2017-Dec-30 18:30N 06°26' E 003°23'0 0.0
2017-Dec-30 17:58N 06°26' E 003°23'0 0.0
2017-Dec-30 17:28N 06°26' E 003°23'42 2.7
2017-Dec-30 01:48N 05°50' E 003°03'612.8
2017-Dec-30 01:19N 05°45' E 002°59'813.0
2017-Dec-30 00:41N 05°38' E 002°54'213.1
2017-Dec-30 00:30N 05°36' E 002°53'116 3.1
2017-Dec-28 11:10N 04°08' E 001°37'0 0.4
2017-Dec-28 10:54N 04°08' E 001°37'0 0.4
2017-Dec-28 10:15N 04°08' E 001°37'0 0.3
2017-Dec-28 10:00N 04°08' E 001°37'0 0.3
2017-Dec-28 09:30N 04°08' E 001°37'1 0.3
2017-Dec-28 05:31N 04°07' E 001°36'0 0.3
2017-Dec-28 05:30N 04°06' E 001°36'0 0.3
2017-Dec-28 05:00N 04°06' E 001°36'0 0.3
2017-Dec-28 04:26N 04°06' E 001°36'0 0.4
2017-Dec-28 03:39N 04°06' E 001°36'0 0.3
2017-Dec-28 03:30N 04°06' E 001°36'0 0.4
2017-Dec-28 03:00N 04°06' E 001°36'0 0.3
2017-Dec-28 02:28N 04°06' E 001°36'0 0.3
2017-Dec-28 01:40N 04°05' E 001°36'0 0.3
2017-Dec-28 01:30N 04°05' E 001°35'0 0.3
2017-Dec-27 23:53N 04°05' E 001°35'1 0.2
2017-Dec-27 21:08N 04°05' E 001°35'0 0.4
2017-Dec-27 21:00N 04°05' E 001°34'0 0.3
2017-Dec-27 20:31N 04°05' E 001°34'0 0.1
2017-Dec-27 19:59N 04°05' E 001°34'0 0.9
2017-Dec-27 19:30N 04°05' E 001°34'5 9.3
2017-Dec-27 19:00N 04°04' E 001°30'  

Dump ship's entire track history